Time;durP1;ratioP1;P1;durP2;ratioP2;P2;SDS_P1;SDS_P2;PMS_P1;PMS_P2;Temp;Humidity;BMP_temperature;BMP_pressure;BME280_temperature;BME280_humidity;BME280_pressure;Samples;Min_cycle;Max_cycle;Signal;HPM_P1;HPM_P2
2022/11/29 00:00:51;;;;;;;44.17;23.08;;;;;;;6.14;100.00;100929.91;4927180;29;20142;-45
2022/11/29 00:03:18;;;;;;;43.15;22.80;;;;;;;6.10;100.00;100926.16;4925809;29;20493;-46
2022/11/29 00:05:44;;;;;;;42.10;21.92;;;;;;;6.10;100.00;100923.41;4929415;29;20131;-45
2022/11/29 00:08:12;;;;;;;41.35;21.27;;;;;;;6.09;100.00;100926.47;4929003;29;20043;-45
2022/11/29 00:10:39;;;;;;;41.42;21.67;;;;;;;6.09;100.00;100926.47;4929464;29;20525;-49
2022/11/29 00:13:05;;;;;;;39.63;19.40;;;;;;;6.05;100.00;100925.47;4929530;29;20477;-47
2022/11/29 00:15:36;;;;;;;39.63;21.20;;;;;;;6.05;100.00;100920.78;4929408;29;20435;-45
2022/11/29 00:18:04;;;;;;;34.63;18.70;;;;;;;6.04;100.00;100918.34;4912218;29;20047;-45
2022/11/29 00:20:32;;;;;;;40.45;17.40;;;;;;;6.00;100.00;100922.84;4929182;29;20565;-48
2022/11/29 00:22:59;;;;;;;36.53;18.25;;;;;;;6.00;100.00;100920.91;4929427;29;20066;-45
2022/11/29 00:25:26;;;;;;;31.38;18.00;;;;;;;6.00;100.00;100920.91;4928080;29;20664;-50
2022/11/29 00:27:53;;;;;;;33.15;17.70;;;;;;;6.01;100.00;100929.97;4929496;29;20055;-45
2022/11/29 00:30:19;;;;;;;42.13;19.83;;;;;;;5.99;100.00;100933.03;4911378;29;20060;-46
2022/11/29 00:32:46;;;;;;;33.05;18.30;;;;;;;6.00;100.00;100933.84;4911555;29;20058;-45
2022/11/29 00:35:13;;;;;;;37.47;18.98;;;;;;;5.98;100.00;100941.59;4929681;29;20059;-45
2022/11/29 00:37:40;;;;;;;41.75;17.15;;;;;;;5.96;100.00;100938.31;4929133;29;20498;-47
2022/11/29 00:40:07;;;;;;;35.60;17.63;;;;;;;5.94;100.00;100946.06;4929136;29;20517;-48
2022/11/29 00:42:34;;;;;;;31.23;18.00;;;;;;;5.93;100.00;100945.25;4928984;29;20047;-45
2022/11/29 00:45:00;;;;;;;40.03;18.33;;;;;;;5.92;100.00;100954.63;4929559;29;20138;-45
2022/11/29 00:47:28;;;;;;;35.33;17.70;;;;;;;5.91;100.00;100954.91;4928721;29;20095;-45
2022/11/29 00:49:54;;;;;;;34.88;18.02;;;;;;;5.92;100.00;100954.63;4929344;29;20056;-47
2022/11/29 00:52:21;;;;;;;40.05;17.67;;;;;;;5.92;100.00;100959.31;4927708;29;20055;-46
2022/11/29 00:54:48;;;;;;;43.03;18.88;;;;;;;5.94;100.00;100957.88;4927028;29;20051;-45
2022/11/29 00:57:14;;;;;;;38.20;16.95;;;;;;;5.96;100.00;100963.06;4928743;29;20463;-46
2022/11/29 00:59:41;;;;;;;36.58;17.50;;;;;;;5.96;100.00;100965.78;4904578;29;20048;-45
2022/11/29 01:02:08;;;;;;;34.03;15.07;;;;;;;5.96;100.00;100960.31;4928925;29;20554;-46
2022/11/29 01:04:34;;;;;;;34.95;15.68;;;;;;;5.96;100.00;100965.78;4928802;29;20074;-47
2022/11/29 01:07:01;;;;;;;41.42;16.30;;;;;;;5.94;100.00;100957.06;4929955;29;20075;-46
2022/11/29 01:09:28;;;;;;;37.67;16.27;;;;;;;5.93;100.00;100949.94;4932073;29;20050;-45
2022/11/29 01:11:54;;;;;;;32.22;15.98;;;;;;;5.91;100.00;100952.19;4932447;29;20051;-44
2022/11/29 01:14:21;;;;;;;31.17;13.18;;;;;;;5.88;100.00;100942.63;4931223;29;20055;-45
2022/11/29 01:16:48;;;;;;;26.83;13.15;;;;;;;5.88;100.00;100942.63;4931200;29;20048;-45
2022/11/29 01:19:14;;;;;;;29.10;14.88;;;;;;;5.89;100.00;100932.44;4915008;29;20067;-45
2022/11/29 01:21:41;;;;;;;32.50;16.15;;;;;;;5.89;100.00;100926.94;4931975;29;20052;-49
2022/11/29 01:24:08;;;;;;;39.85;16.13;;;;;;;5.89;100.00;100929.69;4932297;29;20051;-45
2022/11/29 01:26:34;;;;;;;37.83;16.92;;;;;;;5.92;100.00;100920.84;4938175;29;20071;-45
2022/11/29 01:29:01;;;;;;;40.45;17.73;;;;;;;5.93;100.00;100927.97;4932069;29;20052;-45
2022/11/29 01:31:31;;;;;;;45.95;17.60;;;;;;;5.93;100.00;100923.25;4931942;29;20055;-45
2022/11/29 01:33:59;;;;;;;48.97;19.92;;;;;;;5.95;100.00;100939.47;4931996;29;20059;-44
2022/11/29 01:36:27;;;;;;;49.30;20.35;;;;;;;5.95;100.00;100947.69;4932115;29;20138;-45
2022/11/29 01:38:54;;;;;;;40.38;19.60;;;;;;;5.99;100.00;100943.19;4931617;29;20051;-46
2022/11/29 01:41:27;;;;;;;44.47;19.83;;;;;;;6.01;100.00;100957.47;4932065;29;20457;-45
2022/11/29 01:43:58;;;;;;;38.55;18.45;;;;;;;6.02;100.00;100959.88;4931728;29;20051;-44
2022/11/29 01:46:31;;;;;;;36.05;18.92;;;;;;;6.04;100.00;100946.66;4930194;29;20040;-45
2022/11/29 01:49:07;;;;;;;44.95;20.25;;;;;;;6.07;100.00;100950.72;4930313;29;20039;-49
2022/11/29 01:51:38;;;;;;;35.40;17.98;;;;;;;6.08;100.00;100953.16;4930596;29;20058;-52
2022/11/29 01:54:07;;;;;;;34.20;18.48;;;;;;;6.09;100.00;100952.03;4931375;29;20124;-44
2022/11/29 01:56:34;;;;;;;27.58;15.95;;;;;;;6.11;100.00;100946.22;4931716;29;20091;-44
2022/11/29 01:59:05;;;;;;;32.42;17.27;;;;;;;6.12;100.00;100959.66;4931849;29;20048;-46
2022/11/29 02:01:33;;;;;;;31.40;15.50;;;;;;;6.13;100.00;100957.72;4931144;29;20518;-46
2022/11/29 02:04:03;;;;;;;25.63;14.95;;;;;;;6.12;100.00;100959.66;4931506;29;20051;-44
2022/11/29 02:06:30;;;;;;;32.50;15.70;;;;;;;6.11;100.00;100952.53;4931754;29;20102;-46
2022/11/29 02:08:57;;;;;;;27.75;13.88;;;;;;;6.11;100.00;100958.03;4931228;29;20052;-46
2022/11/29 02:11:29;;;;;;;37.17;15.75;;;;;;;6.10;100.00;100947.34;4931366;29;20050;-44
2022/11/29 02:14:21;;;;;;;35.17;14.32;;;;;;;6.09;100.00;100960.25;4931027;29;20048;-46
2022/11/29 02:17:00;;;;;;;26.55;12.52;;;;;;;6.06;100.00;100960.09;4917217;29;20048;-45
2022/11/29 02:19:41;;;;;;;27.80;13.30;;;;;;;6.01;100.00;100968.47;4930168;29;20056;-47
2022/11/29 02:22:27;;;;;;;23.23;11.50;;;;;;;5.96;100.00;100976.78;4930989;29;20486;-45
2022/11/29 02:25:17;;;;;;;26.75;12.50;;;;;;;5.92;100.00;100982.09;4930223;29;20087;-52
2022/11/29 02:28:03;;;;;;;27.70;10.93;;;;;;;5.92;100.00;100982.09;4916624;29;20085;-46
2022/11/29 02:30:45;;;;;;;26.58;10.75;;;;;;;5.94;100.00;100987.28;4931102;29;20637;-47
2022/11/29 02:33:42;;;;;;;23.30;10.52;;;;;;;5.97;100.00;100992.16;4930459;29;20052;-46
2022/11/29 02:36:22;;;;;;;23.02;10.63;;;;;;;5.94;100.00;100995.53;4931135;29;20055;-45
2022/11/29 02:39:21;;;;;;;23.70;10.15;;;;;;;5.92;100.00;100989.53;4931075;29;20070;-46
2022/11/29 02:42:23;;;;;;;23.23;9.60;;;;;;;5.93;100.00;100983.72;4930569;29;20051;-45
2022/11/29 02:45:20;;;;;;;21.23;9.43;;;;;;;5.94;100.00;100981.78;4894043;29;20226;-47
2022/11/29 02:48:06;;;;;;;18.75;9.85;;;;;;;5.94;100.00;100973.53;4929855;29;20039;-45
2022/11/29 02:50:55;;;;;;;23.33;9.80;;;;;;;5.98;100.00;100977.31;4914770;29;20052;-48
2022/11/29 02:53:49;;;;;;;26.23;10.43;;;;;;;5.99;100.00;100981.66;4929694;29;20505;-45
2022/11/29 02:56:30;;;;;;;21.77;9.95;;;;;;;6.00;100.00;100980.56;4928306;29;20414;-45
2022/11/29 02:59:22;;;;;;;21.75;9.65;;;;;;;5.99;100.00;100970.69;4926805;29;20058;-45
2022/11/29 03:01:54;;;;;;;21.05;9.13;;;;;;;6.01;100.00;100979.44;4954321;23;20527;-45
2022/11/29 03:04:41;;;;;;;14.95;8.00;;;;;;;6.01;100.00;100985.72;4940863;29;20130;-46
2022/11/29 03:07:22;;;;;;;26.85;8.93;;;;;;;6.01;100.00;100988.47;4948498;29;20067;-45
2022/11/29 03:10:07;;;;;;;16.20;7.28;;;;;;;5.99;100.00;100995.41;4949614;28;20051;-47
2022/11/29 03:12:44;;;;;;;18.08;7.03;;;;;;;5.96;100.00;101005.09;4949614;28;20051;-46
2022/11/29 03:15:58;;;;;;;16.92;6.18;;;;;;;5.94;100.00;101009.25;4949539;28;20090;-45
2022/11/29 03:18:56;;;;;;;17.00;6.93;;;;;;;5.88;100.00;101003.06;4927330;29;20450;-45
2022/11/29 03:21:36;;;;;;;16.58;5.90;;;;;;;5.82;100.00;101004.28;4917348;29;20067;-47
2022/11/29 03:24:14;;;;;;;14.73;5.82;;;;;;;5.78;100.00;100985.94;4944656;29;20145;-49
2022/11/29 03:26:48;;;;;;;11.10;5.55;;;;;;;5.73;100.00;100988.81;4949446;29;20051;-46
2022/11/29 03:29:25;;;;;;;12.48;5.20;;;;;;;5.67;100.00;101004.59;4949370;28;20062;-45
2022/11/29 03:32:02;;;;;;;14.23;7.13;;;;;;;5.63;100.00;101000.00;4948499;28;20050;-45
2022/11/29 03:34:53;;;;;;;12.25;5.57;;;;;;;5.59;100.00;101002.56;4949207;28;20051;-45
2022/11/29 03:37:50;;;;;;;9.57;5.22;;;;;;;5.54;100.00;101014.47;4946629;28;20047;-45
2022/11/29 03:40:21;;;;;;;13.05;5.55;;;;;;;5.53;100.00;101020.28;4942827;29;20094;-45
2022/11/29 03:43:00;;;;;;;12.40;5.97;;;;;;;5.51;100.00;101031.53;4949059;28;20035;-45
2022/11/29 03:46:01;;;;;;;11.55;5.22;;;;;;;5.51;100.00;101019.75;4946730;29;20047;-50
2022/11/29 03:48:54;;;;;;;18.23;6.00;;;;;;;5.50;100.00;101029.13;4948139;29;20058;-45
2022/11/29 03:51:48;;;;;;;10.23;4.90;;;;;;;5.50;100.00;101018.13;4921005;29;20505;-46
2022/11/29 03:54:21;;;;;;;9.00;5.00;;;;;;;5.50;100.00;101007.97;4947091;28;20047;-45
2022/11/29 03:56:48;;;;;;;16.00;6.20;;;;;;;5.50;100.00;101013.47;4937265;29;20054;-45
2022/11/29 03:59:43;;;;;;;12.48;4.70;;;;;;;5.49;100.00;101022.81;4948621;29;20043;-46
2022/11/29 04:02:37;;;;;;;14.00;4.88;;;;;;;5.50;100.00;101024.44;4948874;29;20055;-45
2022/11/29 04:05:12;;;;;;;14.10;4.57;;;;;;;5.50;100.00;101038.16;4943741;29;20051;-45
2022/11/29 04:07:54;;;;;;;16.27;5.75;;;;;;;5.51;100.00;101037.03;4943096;29;20050;-46
2022/11/29 04:10:58;;;;;;;19.38;5.07;;;;;;;5.53;100.00;101040.28;4948662;28;20059;-45
2022/11/29 04:14:06;;;;;;;21.98;6.28;;;;;;;5.57;100.00;101036.94;4935848;29;20405;-45
2022/11/29 04:16:50;;;;;;;19.20;5.70;;;;;;;5.59;100.00;101043.75;4926658;29;20056;-46
2022/11/29 04:19:29;;;;;;;16.13;6.50;;;;;;;5.60;100.00;101048.13;4926710;29;20564;-48
2022/11/29 04:22:43;;;;;;;11.20;5.32;;;;;;;5.62;100.00;101047.81;4941312;28;20645;-45
2022/11/29 04:25:12;;;;;;;12.90;4.75;;;;;;;5.63;100.00;101066.75;4891963;29;20080;-45
2022/11/29 04:27:40;;;;;;;19.05;4.88;;;;;;;5.66;100.00;101070.81;4952635;28;20589;-51
2022/11/29 04:30:09;;;;;;;12.73;5.85;;;;;;;5.68;100.00;101074.88;4945437;28;20047;-45
2022/11/29 04:32:54;;;;;;;10.52;4.40;;;;;;;5.69;100.00;101075.72;4948682;28;20054;-45
2022/11/29 04:35:27;;;;;;;12.10;4.78;;;;;;;5.68;100.00;101074.06;4947877;28;20051;-46
2022/11/29 04:38:08;;;;;;;17.70;7.20;;;;;;;5.69;100.00;101075.72;4947996;28;20048;-45
2022/11/29 04:41:12;;;;;;;18.90;4.60;;;;;;;5.71;100.00;101076.22;4948065;28;20106;-45
2022/11/29 04:44:04;;;;;;;17.23;4.72;;;;;;;5.73;100.00;101079.47;4951736;28;20058;-44
2022/11/29 04:46:38;;;;;;;20.63;4.35;;;;;;;5.73;100.00;101077.53;4943896;29;20061;-47
2022/11/29 04:49:23;;;;;;;12.57;4.43;;;;;;;5.76;100.00;101087.09;4950427;29;20059;-47
2022/11/29 04:52:11;;;;;;;14.02;4.88;;;;;;;5.78;100.00;101084.84;4952039;28;20054;-47
2022/11/29 04:55:03;;;;;;;20.65;5.65;;;;;;;5.81;100.00;101092.50;4952019;28;20051;-45
2022/11/29 04:57:54;;;;;;;8.10;3.40;;;;;;;5.83;100.00;101093.00;4951433;28;20559;-44
2022/11/29 05:00:23;;;;;;;11.98;3.95;;;;;;;5.85;100.00;101097.09;4951668;29;20059;-48
2022/11/29 05:02:57;;;;;;;7.50;3.30;;;;;;;5.87;100.00;101094.06;4950791;28;20528;-49
2022/11/29 05:05:43;;;;;;;18.67;4.63;;;;;;;5.89;100.00;101098.13;4949605;28;20531;-47
2022/11/29 05:08:24;;;;;;;10.07;3.58;;;;;;;5.90;100.00;101094.28;4951413;28;20047;-48
2022/11/29 05:11:03;;;;;;;15.25;3.80;;;;;;;5.92;100.00;101091.19;4951843;29;20497;-48
2022/11/29 05:14:00;;;;;;;11.50;3.80;;;;;;;5.93;100.00;101081.84;4939061;29;20493;-46
2022/11/29 05:16:44;;;;;;;16.63;3.95;;;;;;;5.95;100.00;101074.09;4948472;29;20055;-48
2022/11/29 05:19:24;;;;;;;13.20;3.55;;;;;;;5.95;100.00;101080.44;4950922;29;20043;-46
2022/11/29 05:22:21;;;;;;;10.80;3.60;;;;;;;5.97;100.00;101071.84;4951487;29;20493;-44
2022/11/29 05:25:06;;;;;;;7.88;3.88;;;;;;;5.99;100.00;101086.09;4951626;28;20464;-45
2022/11/29 05:27:39;;;;;;;10.27;3.40;;;;;;;5.99;100.00;101092.41;4951650;29;20051;-46
2022/11/29 05:30:12;;;;;;;11.85;3.25;;;;;;;5.99;100.00;101097.91;4951438;28;20158;-47
2022/11/29 05:32:52;;;;;;;18.60;4.35;;;;;;;5.99;100.00;101105.34;4951350;28;20093;-45
2022/11/29 05:35:43;;;;;;;12.63;3.13;;;;;;;5.98;100.00;101118.25;4949856;28;20055;-45
2022/11/29 05:38:33;;;;;;;11.73;3.85;;;;;;;5.98;100.00;101111.97;4943920;29;20047;-45
2022/11/29 05:41:02;;;;;;;9.82;4.68;;;;;;;5.97;100.00;101118.56;4951068;28;20055;-45
2022/11/29 05:44:10;;;;;;;12.82;3.35;;;;;;;5.95;100.00;101127.13;4951034;28;20059;-45
2022/11/29 05:47:02;;;;;;;8.32;3.35;;;;;;;5.94;100.00;101122.75;4951091;29;20051;-47
2022/11/29 05:49:50;;;;;;;10.07;3.10;;;;;;;5.93;100.00;101136.81;4951044;28;20050;-45
2022/11/29 05:52:51;;;;;;;10.60;3.85;;;;;;;5.88;100.00;101143.19;4951087;28;20047;-45
2022/11/29 05:55:47;;;;;;;13.30;3.45;;;;;;;5.84;100.00;101138.59;4944016;28;20043;-45
2022/11/29 05:58:38;;;;;;;10.40;4.45;;;;;;;5.81;100.00;101136.44;4950738;28;20055;-44
2022/11/29 06:01:22;;;;;;;7.70;3.25;;;;;;;5.80;100.00;101143.09;4950402;29;20174;-46
2022/11/29 06:03:58;;;;;;;7.57;2.95;;;;;;;5.77;100.00;101141.72;4949347;29;20489;-51
2022/11/29 06:06:29;;;;;;;12.95;4.18;;;;;;;5.73;100.00;101139.91;4950129;28;20051;-45
2022/11/29 06:09:06;;;;;;;8.85;3.40;;;;;;;5.68;100.00;101134.50;4951438;28;20104;-45
2022/11/29 06:11:43;;;;;;;4.85;3.25;;;;;;;5.62;100.00;101135.69;4943670;28;20040;-45
2022/11/29 06:14:43;;;;;;;14.75;3.72;;;;;;;5.54;100.00;101139.97;4950699;28;20058;-44
2022/11/29 06:17:38;;;;;;;9.05;3.47;;;;;;;5.45;100.00;101134.34;4949912;28;20410;-48
2022/11/29 06:20:39;;;;;;;7.15;3.08;;;;;;;5.35;100.00;101134.53;4950567;28;20054;-44
2022/11/29 06:23:24;;;;;;;9.38;3.00;;;;;;;5.29;100.00;101138.50;4949612;29;20517;-45
2022/11/29 06:26:06;;;;;;;11.57;3.95;;;;;;;5.24;100.00;101159.72;4950348;28;20055;-46
2022/11/29 06:29:00;;;;;;;7.28;3.05;;;;;;;5.26;100.00;101166.53;4939535;28;20051;-47
2022/11/29 06:31:43;;;;;;;9.93;3.20;;;;;;;5.28;100.00;101158.00;4950275;29;20065;-48
2022/11/29 06:34:35;;;;;;;12.70;4.50;;;;;;;5.28;100.00;101169.78;4948035;29;20051;-46
2022/11/29 06:37:22;;;;;;;12.82;3.63;;;;;;;5.27;100.00;101165.41;4945772;29;20055;-45
2022/11/29 06:39:49;;;;;;;10.23;2.60;;;;;;;5.26;100.00;101169.28;4949999;28;20054;-44
2022/11/29 06:42:16;;;;;;;9.93;3.78;;;;;;;5.22;100.00;101181.13;4950473;28;20179;-44
2022/11/29 06:44:43;;;;;;;11.00;3.00;;;;;;;5.23;100.00;101182.78;4945038;28;20456;-44
2022/11/29 06:47:26;;;;;;;8.63;3.22;;;;;;;5.29;100.00;101181.59;4944609;29;20531;-45
2022/11/29 06:49:57;;;;;;;;;;;;;;;5.34;100.00;101187.00;4950666;28;20043;-44
2022/11/29 06:53:04;;;;;;;6.82;3.28;;;;;;;5.36;100.00;101182.03;4950103;29;19966;-44
2022/11/29 06:55:48;;;;;;;7.30;2.63;;;;;;;5.36;100.00;101163.63;4949603;29;20050;-45
2022/11/29 06:58:39;;;;;;;9.70;3.97;;;;;;;5.36;100.00;101171.88;4949421;29;20050;-46
2022/11/29 07:01:32;;;;;;;11.95;4.47;;;;;;;5.33;100.00;101155.97;4946683;28;20067;-44
2022/11/29 07:04:29;;;;;;;7.40;3.10;;;;;;;5.32;100.00;101159.84;4946919;28;20091;-45
2022/11/29 07:06:56;;;;;;;14.65;2.42;;;;;;;5.34;100.00;101165.88;4944846;29;20125;-44
2022/11/29 07:09:29;;;;;;;7.25;3.30;;;;;;;5.35;100.00;101167.47;4947623;28;20051;-45
2022/11/29 07:11:56;;;;;;;6.95;2.78;;;;;;;5.34;100.00;101179.59;4949763;29;20461;-44
2022/11/29 07:14:23;;;;;;;14.73;5.35;;;;;;;5.37;100.00;101170.75;4949492;28;20414;-47
2022/11/29 07:17:11;;;;;;;7.70;3.58;;;;;;;5.35;100.00;101188.63;4949533;28;20062;-44
2022/11/29 07:19:53;;;;;;;6.47;2.92;;;;;;;5.37;100.00;101194.66;4947852;28;20047;-45
2022/11/29 07:22:57;;;;;;;9.02;4.18;;;;;;;5.40;100.00;101205.81;4949206;29;20054;-44
2022/11/29 07:25:50;;;;;;;11.73;2.95;;;;;;;5.46;100.00;101201.06;4949164;28;20043;-44
2022/11/29 07:28:45;;;;;;;10.50;3.33;;;;;;;5.50;100.00;101194.69;4949183;28;20058;-47
2022/11/29 07:31:15;;;;;;;10.60;3.95;;;;;;;5.55;100.00;101207.50;4947383;29;20134;-45
2022/11/29 07:34:24;;;;;;;8.52;2.85;;;;;;;5.61;100.00;101194.50;4948322;28;20050;-45
2022/11/29 07:37:09;;;;;;;9.93;4.00;;;;;;;5.65;100.00;101181.78;4947428;28;20466;-47
2022/11/29 07:39:52;;;;;;;7.05;3.35;;;;;;;5.66;100.00;101180.69;4937765;29;20043;-45
2022/11/29 07:42:22;;;;;;;18.08;4.13;;;;;;;5.66;100.00;101178.75;4948129;28;20047;-44
2022/11/29 07:44:51;;;;;;;7.10;5.13;;;;;;;5.65;100.00;101187.28;4948994;28;20054;-46
2022/11/29 07:47:18;;;;;;;11.15;3.53;;;;;;;5.63;100.00;101192.28;4949228;28;20464;-45
2022/11/29 07:49:44;;;;;;;12.02;3.90;;;;;;;5.64;100.00;101199.41;4948156;28;20102;-44
2022/11/29 07:52:14;;;;;;;6.07;3.25;;;;;;;5.65;100.00;101201.03;4947055;28;20058;-46
2022/11/29 07:54:41;;;;;;;5.88;2.75;;;;;;;5.67;100.00;101201.53;4941372;29;20044;-46
2022/11/29 07:57:08;;;;;;;4.72;2.70;;;;;;;5.69;100.00;101202.06;4948618;28;20070;-47
2022/11/29 07:59:34;;;;;;;11.63;3.25;;;;;;;5.72;100.00;101202.25;4949225;28;20434;-44
2022/11/29 08:02:01;;;;;;;10.60;3.15;;;;;;;5.75;100.00;101200.84;4948420;28;20059;-44
2022/11/29 08:04:45;;;;;;;5.75;3.13;;;;;;;5.77;100.00;101209.63;4948319;28;20102;-45
2022/11/29 08:07:13;;;;;;;6.72;2.75;;;;;;;5.80;100.00;101203.53;4945915;29;20049;-44
2022/11/29 08:09:40;;;;;;;5.53;2.85;;;;;;;5.81;100.00;101216.13;4947339;29;20028;-49
2022/11/29 08:12:06;;;;;;;7.93;3.30;;;;;;;5.81;100.00;101219.69;4948785;29;20138;-45
2022/11/29 08:14:33;;;;;;;8.13;2.83;;;;;;;5.84;100.00;101218.28;4948716;28;20051;-45
2022/11/29 08:17:00;;;;;;;14.30;5.10;;;;;;;5.87;100.00;101220.44;4950845;28;20490;-49
2022/11/29 08:19:26;;;;;;;11.13;3.33;;;;;;;5.88;100.00;101222.88;4967216;28;20055;-45
2022/11/29 08:21:53;;;;;;;8.50;3.58;;;;;;;5.90;100.00;101230.84;4951756;29;20058;-45
2022/11/29 08:24:20;;;;;;;10.75;3.20;;;;;;;5.92;100.00;101223.94;4952347;28;20051;-49
2022/11/29 08:26:47;;;;;;;8.35;3.65;;;;;;;5.94;100.00;101232.69;4946876;28;20077;-45
2022/11/29 08:29:14;;;;;;;7.55;3.47;;;;;;;5.97;100.00;101234.00;4952565;28;20070;-44
2022/11/29 08:31:40;;;;;;;9.85;3.92;;;;;;;5.99;100.00;101224.34;4951261;28;20047;-44
2022/11/29 08:34:09;;;;;;;7.80;3.25;;;;;;;6.01;100.00;101213.06;4948878;28;20043;-45
2022/11/29 08:36:36;;;;;;;5.85;3.03;;;;;;;6.03;100.00;101217.13;4950176;28;20051;-44
2022/11/29 08:39:03;;;;;;;14.52;4.22;;;;;;;6.05;100.00;101223.13;4952181;29;20054;-45
2022/11/29 08:41:35;;;;;;;;;;;;;;;6.09;100.00;101234.31;4952652;28;20784;-44
2022/11/29 08:44:03;;;;;;;9.98;3.65;;;;;;;6.09;100.00;101212.31;4951023;29;19926;-44
2022/11/29 08:49:15;;;;;;;20.35;7.28;;;;;;;6.13;100.00;101213.38;4952033;28;20121;-44
2022/11/29 08:51:42;;;;;;;14.30;6.82;;;;;;;6.14;100.00;101210.28;4952139;29;20055;-44
2022/11/29 08:54:09;;;;;;;19.45;8.23;;;;;;;6.17;100.00;101208.09;4949552;28;20122;-52
2022/11/29 08:56:36;;;;;;;16.55;5.97;;;;;;;6.20;100.00;101211.00;4948609;29;20051;-45
2022/11/29 08:59:23;;;;;;;22.25;7.40;;;;;;;6.21;100.00;101211.84;4943255;29;20153;-47
2022/11/29 09:01:50;;;;;;;107.72;60.97;;;;;;;6.23;100.00;101235.16;4944825;28;20060;-48
2022/11/29 09:04:16;;;;;;;144.63;82.68;;;;;;;6.31;100.00;101237.19;4950531;28;20720;-46
2022/11/29 09:06:43;;;;;;;43.40;24.38;;;;;;;6.34;100.00;101231.09;4951645;28;20051;-47
2022/11/29 09:09:10;;;;;;;14.57;6.22;;;;;;;6.37;100.00;101229.66;4950798;29;20054;-47
2022/11/29 09:11:37;;;;;;;14.10;4.35;;;;;;;6.37;100.00;101232.41;4950173;29;20051;-45
2022/11/29 09:14:06;;;;;;;8.10;4.03;;;;;;;6.39;100.00;101228.25;4949054;28;20042;-45
2022/11/29 09:16:35;;;;;;;9.82;4.22;;;;;;;6.40;100.00;101234.56;4950621;29;20051;-46
2022/11/29 09:19:04;;;;;;;8.70;4.20;;;;;;;6.41;100.00;101231.50;4948869;29;20572;-55
2022/11/29 09:21:33;;;;;;;6.22;3.83;;;;;;;6.44;100.00;101241.06;4951355;29;20051;-48
2022/11/29 09:24:01;;;;;;;10.23;4.50;;;;;;;6.44;100.00;101250.13;4949651;29;20075;-50
2022/11/29 09:26:31;;;;;;;10.70;3.95;;;;;;;6.45;100.00;101251.78;4949339;28;20047;-48
2022/11/29 09:29:00;;;;;;;8.82;3.50;;;;;;;6.46;100.00;101258.91;4946872;28;20082;-55
2022/11/29 09:31:28;;;;;;;12.57;3.80;;;;;;;6.48;100.00;101266.84;4949127;28;20051;-47
2022/11/29 09:33:56;;;;;;;9.73;4.05;;;;;;;6.50;100.00;101264.59;4949005;29;20055;-49
2022/11/29 09:36:23;;;;;;;14.90;3.38;;;;;;;6.51;100.00;101272.53;4949753;29;20047;-47
2022/11/29 09:38:59;;;;;;;5.97;3.40;;;;;;;6.52;100.00;101254.94;4949701;28;20051;-45
2022/11/29 09:41:48;;;;;;;10.07;3.92;;;;;;;6.55;100.00;101259.81;4951560;28;20039;-44
2022/11/29 09:44:40;;;;;;;7.68;3.63;;;;;;;6.55;100.00;101248.81;4949651;29;20043;-46
2022/11/29 09:47:26;;;;;;;10.15;4.07;;;;;;;6.57;100.00;101246.56;4951369;28;20062;-50
2022/11/29 09:50:15;;;;;;;9.43;3.67;;;;;;;6.58;100.00;101253.72;4940408;29;20409;-45
2022/11/29 09:52:56;;;;;;;13.88;4.15;;;;;;;6.61;100.00;101255.84;4951179;29;20670;-45
2022/11/29 09:55:28;;;;;;;6.90;2.95;;;;;;;6.65;100.00;101243.09;4951453;28;20043;-44
2022/11/29 09:57:58;;;;;;;8.27;3.42;;;;;;;6.69;100.00;101246.88;4951209;28;20055;-45
2022/11/29 10:00:27;;;;;;;12.45;4.57;;;;;;;6.72;100.00;101249.00;4950347;28;20140;-47
2022/11/29 10:03:00;;;;;;;12.23;4.28;;;;;;;6.77;100.00;101252.78;4948742;29;20055;-44
2022/11/29 10:05:31;;;;;;;11.32;4.47;;;;;;;6.79;100.00;101264.28;4951258;28;20053;-47
2022/11/29 10:08:05;;;;;;;14.15;4.13;;;;;;;6.82;100.00;101249.91;4951013;28;20102;-46
2022/11/29 10:10:40;;;;;;;10.55;4.68;;;;;;;6.84;100.00;101251.25;4950867;28;20425;-44
2022/11/29 10:13:22;;;;;;;16.33;4.60;;;;;;;6.87;100.00;101256.13;4947498;28;20389;-45
2022/11/29 10:15:53;;;;;;;13.95;4.72;;;;;;;6.88;100.00;101252.28;4949142;28;20048;-50
2022/11/29 10:18:22;;;;;;;13.07;4.28;;;;;;;6.92;100.00;101252.44;4949633;29;20053;-45
2022/11/29 10:20:51;;;;;;;11.98;5.25;;;;;;;6.95;100.00;101249.09;4950460;29;20043;-44
2022/11/29 10:23:45;;;;;;;13.35;5.57;;;;;;;6.99;100.00;101247.34;4950423;28;20059;-46
2022/11/29 10:26:12;;;;;;;15.73;4.28;;;;;;;7.02;100.00;101255.78;4940627;29;20446;-45
2022/11/29 10:28:44;;;;;;;7.80;3.33;;;;;;;7.04;100.00;101259.03;4948800;28;20276;-51
2022/11/29 10:31:25;;;;;;;8.70;3.65;;;;;;;7.08;100.00;101251.00;4940414;29;20048;-45
2022/11/29 10:33:59;;;;;;;8.00;2.67;;;;;;;7.11;100.00;101253.94;4945360;29;20464;-46
2022/11/29 10:36:27;;;;;;;17.27;3.70;;;;;;;7.16;100.00;101253.00;4950038;28;20051;-49
2022/11/29 10:38:58;;;;;;;7.80;3.53;;;;;;;7.19;100.00;101257.91;4949537;28;20059;-45
2022/11/29 10:41:25;;;;;;;21.85;6.20;;;;;;;7.21;100.00;101255.66;4949490;28;20055;-45
2022/11/29 10:43:57;;;;;;;8.90;3.25;;;;;;;7.24;100.00;101246.75;4949486;28;20061;-44
2022/11/29 10:46:29;;;;;;;6.47;2.63;;;;;;;7.27;100.00;101237.88;4950561;28;20099;-45
2022/11/29 10:48:58;;;;;;;7.05;2.67;;;;;;;7.28;100.00;101245.03;4949644;28;20054;-46
2022/11/29 10:51:25;;;;;;;12.23;2.75;;;;;;;7.31;100.00;101249.91;4949902;28;20050;-47
2022/11/29 10:53:55;;;;;;;6.55;2.85;;;;;;;7.32;100.00;101246.03;4950581;28;20081;-48
2022/11/29 10:56:28;;;;;;;7.97;3.25;;;;;;;7.34;100.00;101254.78;4949749;28;20039;-47
2022/11/29 10:59:02;;;;;;;6.32;2.70;;;;;;;7.35;100.00;101259.19;4949469;28;20323;-49
2022/11/29 11:01:30;;;;;;;5.75;3.00;;;;;;;7.36;100.00;101253.34;4936158;29;20082;-46
2022/11/29 11:03:59;;;;;;;13.73;4.50;;;;;;;7.39;100.00;101253.88;4949556;28;20130;-44
2022/11/29 11:06:42;;;;;;;11.38;3.38;;;;;;;7.40;100.00;101247.22;4949040;28;20496;-46
2022/11/29 11:09:27;;;;;;;9.95;2.85;;;;;;;7.44;100.00;101246.28;4949791;28;20150;-44
2022/11/29 11:12:00;;;;;;;8.73;3.75;;;;;;;7.47;100.00;101247.59;4944296;29;20457;-44
2022/11/29 11:14:33;;;;;;;5.72;2.83;;;;;;;7.49;100.00;101240.69;4948408;28;20456;-44
2022/11/29 11:17:21;;;;;;;7.80;3.17;;;;;;;7.53;100.00;101235.34;4949689;28;20051;-46
2022/11/29 11:20:04;;;;;;;6.10;3.03;;;;;;;7.55;100.00;101233.06;4948971;29;20129;-46
2022/11/29 11:22:33;;;;;;;7.32;3.05;;;;;;;7.58;100.00;101232.44;4936913;29;20035;-46
2022/11/29 11:25:05;;;;;;;7.53;3.72;;;;;;;7.60;100.00;101211.72;4945693;28;20059;-44
2022/11/29 11:27:38;;;;;;;8.70;3.30;;;;;;;7.63;100.00;101211.09;4949207;29;20042;-45
2022/11/29 11:30:20;;;;;;;8.70;2.40;;;;;;;7.68;100.00;101216.47;4944131;28;20059;-49
2022/11/29 11:33:19;;;;;;;7.20;2.83;;;;;;;7.75;100.00;101203.09;4937381;29;20050;-47
2022/11/29 11:36:03;;;;;;;9.35;2.50;;;;;;;7.79;100.00;101206.81;4948637;28;20078;-45
2022/11/29 11:38:31;;;;;;;9.52;2.17;;;;;;;7.82;100.00;101203.44;4949180;28;20062;-50
2022/11/29 11:41:19;;;;;;;4.10;2.03;;;;;;;7.89;100.00;101200.22;4949201;28;20086;-44
2022/11/29 11:44:05;;;;;;;6.55;2.20;;;;;;;7.95;100.00;101198.97;4948028;28;20058;-45
2022/11/29 11:46:49;;;;;;;5.00;1.98;;;;;;;7.97;100.00;101197.50;4939709;29;20043;-47
2022/11/29 11:49:30;;;;;;;8.45;2.10;;;;;;;8.02;100.00;101201.28;4947615;29;20043;-45
2022/11/29 11:51:58;;;;;;;6.45;2.13;;;;;;;8.05;100.00;101187.66;4948265;28;20047;-50
2022/11/29 11:54:25;;;;;;;4.20;2.95;;;;;;;8.09;100.00;101196.94;4948889;29;20051;-48
2022/11/29 11:56:52;;;;;;;5.43;1.60;;;;;;;8.12;100.00;101193.53;4949479;28;20047;-46
2022/11/29 11:59:23;;;;;;;9.10;1.98;;;;;;;8.13;100.00;101186.09;4948727;28;20054;-45
2022/11/29 12:01:50;;;;;;;8.60;2.47;;;;;;;8.12;100.00;101173.41;4940513;29;20047;-51
2022/11/29 12:04:21;;;;;;;8.13;2.67;;;;;;;8.10;100.00;101178.44;4944209;29;20051;-45
2022/11/29 12:06:48;;;;;;;5.37;2.40;;;;;;;8.08;100.00;101183.44;4952426;28;20497;-44